Time;durP1;ratioP1;P1;durP2;ratioP2;P2;SDS_P1;SDS_P2;PMS_P1;PMS_P2;Temp;Humidity;BMP_temperature;BMP_pressure;BME280_temperature;BME280_humidity;BME280_pressure;Samples;Min_cycle;Max_cycle;Signal;HPM_P1;HPM_P2
2021/12/24 00:00:26;;;;;;;62.85;35.65;;;128.10;1868.80;;;;;;5031149;28;20041;-60
2021/12/24 00:02:54;;;;;;;62.70;35.75;;;128.20;1868.80;;;;;;5031392;28;20056;-59
2021/12/24 00:05:21;;;;;;;64.75;36.15;;;128.20;1817.60;;;;;;5036242;28;20080;-58
2021/12/24 00:07:47;;;;;;;61.55;35.17;;;128.30;1792.00;;;;;;5093515;28;20020;-59
2021/12/24 00:10:13;;;;;;;64.22;35.47;;;128.20;1766.40;;;;;;5093139;28;20138;-62
2021/12/24 00:12:44;;;;;;;59.30;34.85;;;128.10;1817.60;;;;;;5093123;28;20024;-62
2021/12/24 00:15:29;;;;;;;60.70;35.03;;;128.00;1817.60;;;;;;5092443;28;20043;-61
2021/12/24 00:18:03;;;;;;;60.28;33.97;;;128.00;1843.20;;;;;;5092366;28;20043;-61
2021/12/24 00:36:23;;;;;;;61.33;34.92;;;128.30;1920.00;;;;;;5090852;28;20031;-61
2021/12/24 00:38:49;;;;;;;57.80;32.42;;;128.40;1894.40;;;;;;5093102;28;20024;-61
2021/12/24 00:41:15;;;;;;;61.08;34.05;;;128.40;1868.80;;;;;;5092652;28;20081;-61
2021/12/24 00:43:40;;;;;;;60.35;33.72;;;128.50;1817.60;;;;;;5093244;28;20032;-63
2021/12/24 00:46:06;;;;;;;61.67;32.95;;;128.50;1792.00;;;;;;5093801;28;20101;-63
2021/12/24 00:48:32;;;;;;;56.22;32.65;;;128.50;1766.40;;;;;;5093544;28;20020;-63
2021/12/24 00:56:00;;;;;;;54.00;33.28;;;128.20;1843.20;;;;;;5092357;28;20032;-63
2021/12/24 00:58:25;;;;;;;55.88;32.47;;;128.20;1843.20;;;;;;5090926;28;20028;-62
2021/12/24 01:00:51;;;;;;;54.70;32.95;;;128.10;1843.20;;;;;;5092777;28;20035;-62
2021/12/24 01:03:17;;;;;;;68.70;33.70;;;128.10;1817.60;;;;;;5095084;28;20052;-61
2021/12/24 01:05:44;;;;;;;59.78;36.22;;;128.20;1868.80;;;;;;5096827;28;20020;-61
2021/12/24 01:08:11;;;;;;;57.65;33.83;;;128.30;2022.40;;;;;;5096359;28;20031;-61
2021/12/24 01:10:44;;;;;;;55.53;32.67;;;128.40;1945.60;;;;;;5096659;28;20024;-62
2021/12/24 01:13:10;;;;;;;56.67;33.42;;;128.40;1920.00;;;;;;5094431;28;20027;-62
2021/12/24 01:15:40;;;;;;;57.08;33.00;;;128.50;1894.40;;;;;;5096613;28;20108;-61
2021/12/24 01:18:22;;;;;;;56.78;31.23;;;128.60;1843.20;;;;;;5094060;28;20024;-60
2021/12/24 01:20:53;;;;;;;55.20;32.15;;;128.70;1817.60;;;;;;5093934;28;20055;-61
2021/12/24 01:44:58;;;;;;;58.78;31.52;;;128.70;1945.60;;;;;;5033064;28;20429;-58
2021/12/24 01:47:24;;;;;;;56.28;31.98;;;128.70;1894.40;;;;;;5033696;28;20108;-58
2021/12/24 01:49:50;;;;;;;56.85;32.40;;;128.70;1894.40;;;;;;5033382;28;20112;-58
2021/12/24 01:52:16;;;;;;;54.80;32.60;;;128.80;1868.80;;;;;;5033513;28;20100;-57
2021/12/24 01:54:44;;;;;;;56.72;31.90;;;128.90;1843.20;;;;;;5033356;28;20029;-58
2021/12/24 01:57:12;;;;;;;59.08;34.30;;;128.90;1817.60;;;;;;5033374;28;20069;-58
2021/12/24 01:59:39;;;;;;;56.70;33.00;;;128.90;1817.60;;;;;;5042842;28;20033;-58
2021/12/24 02:02:05;;;;;;;59.50;31.92;;;128.80;1817.60;;;;;;5032386;28;20041;-58
2021/12/24 02:04:30;;;;;;;55.97;31.80;;;128.70;1817.60;;;;;;5016178;28;20037;-59
2021/12/24 02:06:56;;;;;;;56.08;31.80;;;128.60;1843.20;;;;;;5033283;28;20108;-57
2021/12/24 02:09:22;;;;;;;58.10;32.13;;;128.60;1843.20;;;;;;5033328;28;20045;-58
2021/12/24 02:11:48;;;;;;;60.42;32.75;;;128.70;1843.20;;;;;;5033414;28;20025;-59
2021/12/24 02:14:21;;;;;;;57.05;33.03;;;128.60;1868.80;;;;;;5033198;28;20033;-58
2021/12/24 02:30:36;;;;;;;49.70;26.70;;;153.70;1843.20;;;;;;5095965;28;20484;-58
2021/12/24 02:33:03;;;;;;;51.53;27.38;;;153.80;1817.60;;;;;;5095660;28;20116;-58
2021/12/24 02:35:29;;;;;;;50.90;27.83;;;153.80;1817.60;;;;;;5095875;28;20099;-58
2021/12/24 02:37:56;;;;;;;56.95;28.55;;;153.70;1817.60;;;;;;5095268;28;20058;-58
2021/12/24 02:40:21;;;;;;;54.80;29.80;;;153.60;1817.60;;;;;;5095171;28;20508;-58
2021/12/24 02:42:52;;;;;;;51.05;29.33;;;128.80;1843.20;;;;;;5095547;28;20024;-58
2021/12/24 02:45:19;;;;;;;51.45;29.85;;;128.80;1868.80;;;;;;5095154;28;20044;-59
2021/12/24 02:48:09;;;;;;;50.15;29.45;;;128.70;1868.80;;;;;;5095393;28;20409;-59
2021/12/24 02:56:06;;;;;;;49.47;27.58;;;128.60;1843.20;;;;;;5095145;28;20162;-59
2021/12/24 02:58:46;;;;;;;49.55;29.67;;;128.80;1894.40;;;;;;5095284;28;20027;-59
2021/12/24 03:01:15;;;;;;;45.47;27.42;;;128.90;2048.00;;;;;;5094759;28;20049;-59
2021/12/24 03:03:44;;;;;;;47.70;26.50;;;153.60;1945.60;;;;;;5094634;28;20040;-59
2021/12/24 03:06:10;;;;;;;39.47;23.95;;;153.60;1920.00;;;;;;5094723;28;20103;-59
2021/12/24 03:08:36;;;;;;;37.63;22.48;;;153.70;1920.00;;;;;;5094870;28;20043;-59
2021/12/24 03:11:01;;;;;;;35.30;19.63;;;153.90;1894.40;;;;;;5093415;28;20127;-59
2021/12/24 03:13:28;;;;;;;33.92;20.73;;;154.00;1894.40;;;;;;5095044;28;20020;-59
2021/12/24 03:15:57;;;;;;;32.97;19.00;;;154.10;1894.40;;;;;;5094592;28;20032;-59
2021/12/24 03:18:27;;;;;;;31.48;17.35;;;154.20;1894.40;;;;;;5094776;28;20444;-60
2021/12/24 03:23:44;;;;;;;28.33;17.13;;;154.30;1868.80;;;;;;5094881;28;20063;-59
2021/12/24 03:26:13;;;;;;;28.38;17.02;;;154.50;1868.80;;;;;;5093772;28;20081;-59
2021/12/24 03:28:40;;;;;;;24.67;15.45;;;179.20;1868.80;;;;;;5094556;28;20044;-59
2021/12/24 03:31:07;;;;;;;27.65;15.73;;;179.20;1868.80;;;;;;5094549;28;20073;-59
2021/12/24 03:33:35;;;;;;;26.27;15.45;;;179.30;1868.80;;;;;;5094474;28;20027;-59
2021/12/24 03:36:04;;;;;;;24.48;14.02;;;179.40;1843.20;;;;;;5094467;28;20095;-58
2021/12/24 03:38:30;;;;;;;23.58;13.05;;;179.50;1843.20;;;;;;5094526;28;20178;-59
2021/12/24 03:40:56;;;;;;;23.35;12.40;;;179.50;1843.20;;;;;;5092819;28;20149;-58
2021/12/24 03:43:21;;;;;;;24.17;13.23;;;179.60;1817.60;;;;;;5094327;28;20020;-57
2021/12/24 03:46:01;;;;;;;20.17;12.35;;;179.60;1792.00;;;;;;5092901;28;20036;-58
2021/12/24 03:56:25;;;;;;;26.13;13.85;;;179.80;1792.00;;;;;;5093971;28;20508;-58
2021/12/24 03:58:50;;;;;;;23.00;13.93;;;179.90;1792.00;;;;;;5093944;28;20032;-58
2021/12/24 04:01:16;;;;;;;21.42;13.20;;;180.00;1817.60;;;;;;5094027;28;20096;-59
2021/12/24 04:03:42;;;;;;;27.35;13.80;;;180.00;1792.00;;;;;;5093620;28;20055;-59
2021/12/24 04:06:08;;;;;;;30.75;14.30;;;204.80;1868.80;;;;;;5094060;28;20042;-58
2021/12/24 04:08:33;;;;;;;26.33;13.75;;;204.90;1817.60;;;;;;5094023;28;20439;-58
2021/12/24 04:10:59;;;;;;;23.65;15.00;;;204.90;1792.00;;;;;;5092933;28;20464;-58
2021/12/24 04:13:25;;;;;;;25.83;15.32;;;205.00;1792.00;;;;;;5093824;28;20027;-57
2021/12/24 04:15:51;;;;;;;24.35;15.00;;;205.00;1766.40;;;;;;5093888;28;20028;-60
2021/12/24 04:18:43;;;;;;;24.90;15.02;;;205.00;1766.40;;;;;;5093767;28;20024;-58
2021/12/24 04:26:36;;;;;;;27.55;14.57;;;205.20;1868.80;;;;;;5094012;28;20039;-58
2021/12/24 04:29:02;;;;;;;26.73;14.32;;;205.20;1792.00;;;;;;5094260;28;20132;-58
2021/12/24 04:31:38;;;;;;;25.33;13.95;;;205.30;1766.40;;;;;;5093543;28;20024;-58
2021/12/24 04:34:04;;;;;;;24.35;14.63;;;205.30;1740.80;;;;;;5093712;28;20071;-58
2021/12/24 05:03:14;;;;;;;30.00;17.30;;;205.30;1740.80;;;;;;5097338;28;20051;-58
2021/12/24 05:10:38;;;;;;;30.98;15.80;;;205.30;1715.20;;;;;;5097187;28;20382;-58
2021/12/24 05:13:06;;;;;;;27.48;15.48;;;205.30;1715.20;;;;;;5095844;28;20351;-58
2021/12/24 05:15:37;;;;;;;26.17;15.48;;;205.30;1715.20;;;;;;5097257;28;20028;-57
2021/12/24 05:23:27;;;;;;;118.20;58.67;;;205.30;1689.60;;;;;;5096845;28;20035;-57
2021/12/24 05:25:53;;;;;;;61.95;32.88;;;205.30;1715.20;;;;;;5096615;28;20028;-58
2021/12/24 05:28:20;;;;;;;51.58;25.77;;;205.30;1715.20;;;;;;5096799;28;20021;-58
2021/12/24 05:30:47;;;;;;;31.83;18.48;;;205.30;1715.20;;;;;;5096821;28;20028;-58
2021/12/24 05:33:15;;;;;;;34.10;17.75;;;205.30;1715.20;;;;;;5096804;28;20021;-58
2021/12/24 05:35:41;;;;;;;27.38;16.10;;;205.30;1715.20;;;;;;5096672;28;20032;-58
2021/12/24 05:38:07;;;;;;;28.20;16.02;;;205.30;1715.20;;;;;;5096878;28;20020;-58
2021/12/24 05:40:33;;;;;;;26.52;16.45;;;205.30;1715.20;;;;;;5096717;28;20112;-58
2021/12/24 05:42:58;;;;;;;27.92;14.70;;;205.30;1715.20;;;;;;5096632;28;20470;-58
2021/12/24 05:45:24;;;;;;;29.05;17.83;;;205.30;1715.20;;;;;;5096396;28;20043;-58
2021/12/24 05:47:51;;;;;;;35.22;19.75;;;205.30;1715.20;;;;;;5095568;28;20073;-58
2021/12/24 05:50:18;;;;;;;39.38;22.40;;;205.30;1715.20;;;;;;5096503;28;20115;-58
2021/12/24 05:52:44;;;;;;;37.40;22.13;;;205.30;1715.20;;;;;;5096482;28;20024;-59
2021/12/24 05:55:10;;;;;;;39.28;20.67;;;205.30;1715.20;;;;;;5096347;28;20127;-59
2021/12/24 05:57:36;;;;;;;33.20;17.23;;;205.30;1715.20;;;;;;5096029;28;20051;-57
2021/12/24 06:00:05;;;;;;;32.28;18.23;;;205.30;1715.20;;;;;;5094694;28;20070;-58
2021/12/24 06:02:32;;;;;;;29.17;17.08;;;205.30;1715.20;;;;;;5095832;28;20093;-58
2021/12/24 06:04:58;;;;;;;33.60;15.48;;;205.30;1715.20;;;;;;5096254;28;20040;-58
2021/12/24 06:07:24;;;;;;;30.10;15.05;;;205.30;1740.80;;;;;;5096155;28;20458;-58
2021/12/24 06:09:50;;;;;;;26.67;15.18;;;205.30;1715.20;;;;;;5096087;28;20093;-58
2021/12/24 06:12:16;;;;;;;21.48;13.20;;;205.30;1715.20;;;;;;5095845;28;20076;-58
2021/12/24 06:14:44;;;;;;;30.77;13.10;;;205.30;1740.80;;;;;;5095831;28;20183;-58
2021/12/24 06:17:15;;;;;;;26.55;13.43;;;205.30;1740.80;;;;;;5095999;28;20028;-58
2021/12/24 06:19:42;;;;;;;21.02;12.68;;;205.30;1740.80;;;;;;5095854;28;20028;-58
2021/12/24 06:22:08;;;;;;;27.20;12.77;;;205.40;1740.80;;;;;;5096037;28;20547;-58
2021/12/24 06:24:34;;;;;;;23.05;12.68;;;205.30;1740.80;;;;;;5095643;28;20039;-57
2021/12/24 06:27:00;;;;;;;23.83;12.27;;;205.40;1740.80;;;;;;5095844;28;20157;-57
2021/12/24 06:29:26;;;;;;;26.73;12.23;;;205.40;1740.80;;;;;;5095827;28;20044;-58
2021/12/24 06:31:52;;;;;;;20.42;11.23;;;205.40;1740.80;;;;;;5095724;28;20042;-58
2021/12/24 06:34:19;;;;;;;30.88;14.65;;;205.50;1740.80;;;;;;5093999;28;20033;-58
2021/12/24 06:36:47;;;;;;;269.20;77.65;;;205.50;1740.80;;;;;;5095587;28;20032;-58
2021/12/24 06:39:14;;;;;;;386.88;115.55;;;205.50;1740.80;;;;;;5095301;28;20027;-58
2021/12/24 06:41:40;;;;;;;368.83;137.43;;;205.50;1740.80;;;;;;5095386;28;20381;-58
2021/12/24 06:44:09;;;;;;;299.10;137.32;;;205.50;1740.80;;;;;;5093872;28;20062;-58
2021/12/24 06:46:36;;;;;;;211.85;109.32;;;205.60;1740.80;;;;;;5095349;28;20016;-58
2021/12/24 06:49:02;;;;;;;106.65;61.88;;;205.60;1740.80;;;;;;5095154;28;20373;-58
2021/12/24 06:51:28;;;;;;;70.30;38.75;;;205.60;1740.80;;;;;;5095308;28;20384;-58
2021/12/24 06:53:54;;;;;;;49.33;25.73;;;205.60;1740.80;;;;;;5095284;28;20020;-58
2021/12/24 06:56:21;;;;;;;29.67;17.10;;;205.60;1740.80;;;;;;5094894;28;20031;-58
2021/12/24 06:58:46;;;;;;;34.22;15.88;;;205.70;1766.40;;;;;;5095256;28;20028;-58
2021/12/24 07:01:12;;;;;;;36.10;15.88;;;205.70;1740.80;;;;;;5095623;28;20040;-58
2021/12/24 07:03:38;;;;;;;39.53;16.58;;;205.70;1740.80;;;;;;5094763;28;20093;-58
2021/12/24 07:06:07;;;;;;;36.92;17.13;;;205.70;1740.80;;;;;;5094852;28;20034;-58
2021/12/24 07:08:33;;;;;;;32.13;14.95;;;205.70;1715.20;;;;;;5094616;28;20483;-58
2021/12/24 07:10:59;;;;;;;24.83;13.45;;;205.70;1715.20;;;;;;5094666;28;20047;-58
2021/12/24 07:13:25;;;;;;;69.25;29.88;;;205.70;1715.20;;;;;;5094775;28;20048;-58
2021/12/24 07:15:51;;;;;;;189.60;75.50;;;205.70;1715.20;;;;;;5094779;28;20146;-59
2021/12/24 07:18:17;;;;;;;158.48;71.75;;;205.70;1715.20;;;;;;5094974;28;20055;-59
2021/12/24 07:20:43;;;;;;;79.20;39.88;;;205.70;1715.20;;;;;;5093346;28;20043;-59
2021/12/24 07:23:09;;;;;;;68.43;29.50;;;205.70;1715.20;;;;;;5094750;28;20031;-59
2021/12/24 07:25:36;;;;;;;43.03;24.05;;;205.70;1715.20;;;;;;5094384;28;20043;-59
2021/12/24 07:28:03;;;;;;;32.92;16.73;;;205.70;1715.20;;;;;;5094620;28;20032;-59
2021/12/24 07:30:29;;;;;;;28.10;15.10;;;205.70;1715.20;;;;;;5094445;28;20526;-58
2021/12/24 07:32:55;;;;;;;32.15;14.23;;;230.40;1715.20;;;;;;5092921;28;20032;-59
2021/12/24 07:35:21;;;;;;;24.98;13.55;;;205.70;1715.20;;;;;;5094570;28;20024;-59
2021/12/24 07:37:47;;;;;;;23.83;11.68;;;230.40;1715.20;;;;;;5094474;28;20415;-59
2021/12/24 07:40:15;;;;;;;24.90;12.15;;;205.70;1715.20;;;;;;5094801;28;20056;-59
2021/12/24 07:42:45;;;;;;;23.02;10.98;;;230.40;1715.20;;;;;;5093458;28;20023;-59
2021/12/24 07:45:12;;;;;;;24.02;10.88;;;230.40;1715.20;;;;;;5092708;28;20032;-58
2021/12/24 07:47:41;;;;;;;30.20;14.48;;;230.40;1715.20;;;;;;5091418;28;20393;-59
2021/12/24 07:52:54;;;;;;;20.05;12.20;;;230.50;1740.80;;;;;;5090235;28;20377;-59
2021/12/24 07:55:19;;;;;;;25.75;14.77;;;230.60;1740.80;;;;;;5092666;28;20027;-58
2021/12/24 07:57:49;;;;;;;32.40;15.48;;;230.60;1740.80;;;;;;5092647;28;20433;-59
2021/12/24 08:00:16;;;;;;;35.67;14.45;;;230.60;1740.80;;;;;;5088591;28;20115;-59
2021/12/24 08:02:43;;;;;;;29.40;13.45;;;230.60;1740.80;;;;;;5093699;28;20123;-62
2021/12/24 08:05:09;;;;;;;32.55;15.73;;;230.70;1740.80;;;;;;5093983;28;20035;-59
2021/12/24 08:07:35;;;;;;;41.17;16.50;;;230.70;1740.80;;;;;;5094118;28;20082;-59
2021/12/24 08:10:01;;;;;;;45.67;18.65;;;230.80;1740.80;;;;;;5094256;28;20419;-59
2021/12/24 08:12:27;;;;;;;70.70;20.40;;;230.80;1740.80;;;;;;5093451;28;20020;-59
2021/12/24 08:14:52;;;;;;;68.68;25.83;;;230.90;1715.20;;;;;;5093914;28;20388;-59
2021/12/24 08:17:18;;;;;;;58.53;21.65;;;230.90;1715.20;;;;;;5093981;28;20024;-59
2021/12/24 08:19:44;;;;;;;39.75;17.08;;;230.90;1715.20;;;;;;5093816;28;20440;-59
2021/12/24 08:22:12;;;;;;;35.25;13.00;;;230.90;1689.60;;;;;;5093923;28;20028;-59
2021/12/24 08:24:39;;;;;;;30.55;12.20;;;230.90;1689.60;;;;;;5092214;28;20493;-59
2021/12/24 08:27:06;;;;;;;22.88;9.40;;;230.90;1715.20;;;;;;5093885;28;20032;-59
2021/12/24 08:29:32;;;;;;;22.58;10.52;;;230.90;1715.20;;;;;;5093972;28;20043;-59
2021/12/24 08:31:58;;;;;;;21.90;10.15;;;231.00;1689.60;;;;;;5093633;28;20051;-59
2021/12/24 08:34:25;;;;;;;30.65;10.35;;;230.90;1715.20;;;;;;5093573;28;20049;-59
2021/12/24 08:36:52;;;;;;;41.63;11.90;;;231.00;1715.20;;;;;;5093746;28;20031;-59
2021/12/24 08:39:19;;;;;;;17.77;9.85;;;231.00;1715.20;;;;;;5093543;28;20032;-59
2021/12/24 08:41:46;;;;;;;17.45;9.65;;;231.10;1689.60;;;;;;5093223;28;20024;-58
2021/12/24 08:44:12;;;;;;;16.00;8.52;;;231.10;1689.60;;;;;;5093420;28;20063;-58
2021/12/24 08:46:38;;;;;;;14.63;9.15;;;231.10;1689.60;;;;;;5093677;28;20024;-58
2021/12/24 08:49:04;;;;;;;15.85;9.13;;;231.10;1689.60;;;;;;5093424;28;20047;-58
2021/12/24 08:51:31;;;;;;;17.02;8.75;;;231.10;1689.60;;;;;;5093175;28;20028;-58
2021/12/24 08:53:57;;;;;;;21.65;10.02;;;231.20;1689.60;;;;;;5093058;28;20024;-59
2021/12/24 08:56:23;;;;;;;30.83;13.80;;;231.20;1715.20;;;;;;5093407;28;20055;-62
2021/12/24 08:58:49;;;;;;;45.05;15.82;;;256.00;1894.40;;;;;;5093467;28;20093;-62
2021/12/24 09:01:16;;;;;;;75.88;26.42;;;256.40;1894.40;;;;;;5093150;28;20425;-58
2021/12/24 09:03:42;;;;;;;44.33;18.85;;;256.60;1766.40;;;;;;5093092;28;20120;-58
2021/12/24 09:06:08;;;;;;;66.95;26.50;;;256.60;1689.60;;;;;;5093300;28;20115;-58
2021/12/24 09:08:35;;;;;;;80.38;30.50;;;256.60;1689.60;;;;;;5093184;28;20481;-59
2021/12/24 09:11:01;;;;;;;45.83;21.42;;;256.60;1664.00;;;;;;5093418;28;20031;-59
2021/12/24 09:13:27;;;;;;;24.27;12.50;;;256.60;1664.00;;;;;;5091720;28;20550;-57
2021/12/24 09:15:55;;;;;;;21.75;10.98;;;256.60;1664.00;;;;;;5091733;28;20028;-59
2021/12/24 09:18:21;;;;;;;19.55;10.45;;;256.60;1664.00;;;;;;5092696;28;20028;-59
2021/12/24 09:20:48;;;;;;;17.45;10.35;;;256.60;1689.60;;;;;;5092616;28;20024;-58
2021/12/24 09:23:14;;;;;;;23.45;10.18;;;256.70;1689.60;;;;;;5093748;28;20031;-58
2021/12/24 09:25:40;;;;;;;29.98;12.90;;;256.70;1689.60;;;;;;5096299;28;20119;-59
2021/12/24 09:28:08;;;;;;;29.33;14.00;;;256.80;1689.60;;;;;;5095842;28;20461;-58
2021/12/24 09:30:34;;;;;;;19.85;11.07;;;256.90;1689.60;;;;;;5096906;28;20031;-59
2021/12/24 09:33:01;;;;;;;21.10;10.35;;;281.60;1715.20;;;;;;5096839;28;20028;-58
2021/12/24 09:35:28;;;;;;;18.30;9.20;;;281.60;1715.20;;;;;;5096278;28;20024;-58
2021/12/24 09:37:55;;;;;;;17.98;9.27;;;281.60;1715.20;;;;;;5096876;28;20024;-59
2021/12/24 09:40:21;;;;;;;21.63;9.48;;;281.70;1715.20;;;;;;5096533;28;20166;-59
2021/12/24 09:42:47;;;;;;;16.75;9.02;;;281.80;1715.20;;;;;;5096184;28;20393;-58
2021/12/24 09:45:14;;;;;;;17.92;9.35;;;281.80;1715.20;;;;;;5095998;28;20036;-59
2021/12/24 09:47:41;;;;;;;15.77;8.80;;;281.80;1689.60;;;;;;5096692;28;20183;-59
2021/12/24 09:50:10;;;;;;;19.50;10.52;;;281.90;1689.60;;;;;;5096272;28;20027;-59
2021/12/24 09:52:41;;;;;;;20.98;11.30;;;281.90;1689.60;;;;;;5096524;28;20023;-59
2021/12/24 09:55:15;;;;;;;18.98;10.95;;;282.00;1689.60;;;;;;5096389;28;20026;-58
2021/12/24 09:57:42;;;;;;;21.75;10.80;;;282.00;1689.60;;;;;;5095390;28;20081;-59
2021/12/24 10:00:11;;;;;;;23.52;10.65;;;282.00;1689.60;;;;;;5092928;28;20030;-59
2021/12/24 10:02:42;;;;;;;19.13;9.13;;;282.10;1689.60;;;;;;5095670;28;20069;-59
2021/12/24 10:05:42;;;;;;;36.47;10.13;;;282.10;1689.60;;;;;;5094717;28;20402;-59
2021/12/24 10:08:17;;;;;;;17.58;8.63;;;282.20;1689.60;;;;;;5096074;28;20048;-58
2021/12/24 10:10:47;;;;;;;22.23;10.85;;;282.20;1689.60;;;;;;5096073;28;20043;-59
2021/12/24 10:13:38;;;;;;;20.33;10.70;;;282.30;1689.60;;;;;;5096030;28;20024;-59
2021/12/24 10:16:05;;;;;;;21.25;11.60;;;282.30;1689.60;;;;;;5095966;28;20106;-59
2021/12/24 10:18:36;;;;;;;24.83;11.65;;;282.40;1715.20;;;;;;5095989;28;20024;-64
2021/12/24 10:21:07;;;;;;;21.90;11.45;;;282.50;1715.20;;;;;;5095860;28;20024;-62
2021/12/24 10:23:47;;;;;;;16.08;9.55;;;307.20;1715.20;;;;;;5094589;28;20602;-60
2021/12/24 10:26:24;;;;;;;16.02;10.43;;;307.30;1715.20;;;;;;5093991;28;20039;-62
2021/12/24 10:28:53;;;;;;;19.48;11.85;;;307.50;1715.20;;;;;;5093939;28;20020;-60
2021/12/24 10:31:22;;;;;;;19.15;10.75;;;307.50;1689.60;;;;;;5094665;28;20386;-60
2021/12/24 10:34:07;;;;;;;16.70;10.20;;;307.70;1689.60;;;;;;5095065;28;20028;-61
2021/12/24 10:36:50;;;;;;;16.58;10.65;;;307.80;1689.60;;;;;;5095289;28;20023;-60
2021/12/24 10:39:25;;;;;;;16.58;9.27;;;307.90;1664.00;;;;;;5095400;28;20039;-60
2021/12/24 10:41:52;;;;;;;18.75;10.18;;;307.90;1689.60;;;;;;5094655;28;20032;-60
2021/12/24 10:44:21;;;;;;;25.40;11.90;;;308.00;1664.00;;;;;;5094548;28;20039;-61
2021/12/24 10:47:26;;;;;;;19.98;11.32;;;308.10;1664.00;;;;;;5093587;28;20016;-60
2021/12/24 10:53:15;;;;;;;16.95;6.95;;;332.80;1664.00;;;;;;5072842;28;20037;-59
2021/12/24 10:55:49;;;;;;;17.15;7.53;;;332.80;1664.00;;;;;;5072871;28;20437;-60
2021/12/24 10:58:21;;;;;;;21.13;9.23;;;332.90;1638.40;;;;;;5072580;28;20085;-60
2021/12/24 11:00:58;;;;;;;31.40;10.30;;;332.90;1638.40;;;;;;5072833;28;20029;-60
2021/12/24 11:03:32;;;;;;;29.77;9.75;;;333.00;1638.40;;;;;;5072428;28;20040;-60
2021/12/24 11:06:06;;;;;;;32.35;11.05;;;333.00;1638.40;;;;;;5072515;28;20036;-60
2021/12/24 11:08:33;;;;;;;18.05;8.63;;;333.10;1638.40;;;;;;5072590;28;20106;-60
2021/12/24 11:11:01;;;;;;;15.02;8.75;;;333.10;1638.40;;;;;;5071911;28;20111;-60
2021/12/24 11:13:32;;;;;;;20.90;10.35;;;333.10;1638.40;;;;;;5071566;28;20528;-60
2021/12/24 11:16:06;;;;;;;15.68;9.32;;;333.20;1638.40;;;;;;5071359;28;20028;-60
2021/12/24 11:18:39;;;;;;;15.52;9.40;;;333.20;1638.40;;;;;;5070751;28;20432;-60
2021/12/24 11:21:17;;;;;;;21.55;11.07;;;333.20;1638.40;;;;;;5086472;28;20107;-59
2021/12/24 11:23:43;;;;;;;19.52;10.23;;;333.30;1638.40;;;;;;5093362;28;20020;-60
2021/12/24 11:26:13;;;;;;;25.80;14.02;;;333.30;1638.40;;;;;;5093468;28;20520;-60
2021/12/24 11:28:40;;;;;;;20.00;9.75;;;333.30;1689.60;;;;;;5092770;28;20393;-60
2021/12/24 11:31:13;;;;;;;11.90;7.43;;;333.40;1664.00;;;;;;5092957;28;20031;-60
2021/12/24 11:33:45;;;;;;;11.60;7.15;;;333.40;1638.40;;;;;;5092821;28;20039;-61
2021/12/24 11:36:13;;;;;;;11.80;6.53;;;333.40;1638.40;;;;;;5086397;28;20437;-66
2021/12/24 11:38:48;;;;;;;8.68;5.07;;;333.50;1638.40;;;;;;5090748;28;20554;-65
2021/12/24 11:41:17;;;;;;;10.55;5.60;;;333.50;1638.40;;;;;;5092646;28;20052;-65
2021/12/24 11:43:46;;;;;;;9.82;5.53;;;333.50;1638.40;;;;;;5090057;28;20094;-65
2021/12/24 11:46:15;;;;;;;29.75;6.28;;;333.60;1638.40;;;;;;5092041;28;20024;-66
2021/12/24 11:48:42;;;;;;;10.27;5.15;;;333.70;1638.40;;;;;;5092763;28;20457;-66
2021/12/24 11:51:29;;;;;;;12.60;4.72;;;333.70;1638.40;;;;;;5092695;28;20031;-66
2021/12/24 11:54:00;;;;;;;8.13;4.13;;;333.70;1638.40;;;;;;5092020;28;20045;-64
2021/12/24 11:56:26;;;;;;;9.13;4.93;;;358.40;1638.40;;;;;;5090230;28;20469;-66
2021/12/24 11:58:57;;;;;;;14.10;5.35;;;358.40;1638.40;;;;;;5092631;28;20080;-66
2021/12/24 12:01:27;;;;;;;12.75;5.18;;;358.40;1638.40;;;;;;5089641;28;20031;-66
2021/12/24 12:03:58;;;;;;;15.43;5.22;;;358.40;1638.40;;;;;;5092018;28;20051;-66
2021/12/24 12:06:25;;;;;;;9.68;4.88;;;358.40;1638.40;;;;;;5089857;28;20047;-67
2021/12/24 12:08:56;;;;;;;9.35;4.40;;;358.50;1612.80;;;;;;5092916;28;20023;-68
2021/12/24 12:11:25;;;;;;;7.18;4.15;;;358.50;1612.80;;;;;;5092307;28;20463;-66
2021/12/24 12:13:56;;;;;;;8.65;3.90;;;358.50;1612.80;;;;;;5092261;28;20042;-63
2021/12/24 12:16:26;;;;;;;7.45;4.05;;;358.60;1612.80;;;;;;5091106;28;20031;-64
2021/12/24 12:19:21;;;;;;;8.52;4.95;;;358.60;1612.80;;;;;;5092200;28;20043;-65
2021/12/24 12:22:12;;;;;;;8.23;4.70;;;358.60;1612.80;;;;;;5072204;28;20090;-64
2021/12/24 12:25:04;;;;;;;10.50;5.75;;;358.60;1612.80;;;;;;5073837;28;20020;-65
2021/12/24 12:27:54;;;;;;;16.70;7.18;;;358.70;1612.80;;;;;;5073469;28;20474;-65
2021/12/24 12:30:39;;;;;;;11.68;7.68;;;358.70;1612.80;;;;;;5051319;28;20029;-65
2021/12/24 12:33:41;;;;;;;22.42;11.85;;;358.70;1612.80;;;;;;5051504;28;20055;-65
2021/12/24 12:36:07;;;;;;;18.60;9.65;;;358.70;1612.80;;;;;;4972708;28;20035;-64
2021/12/24 12:38:40;;;;;;;12.43;7.05;;;358.80;1612.80;;;;;;4972835;28;20049;-64
2021/12/24 12:41:33;;;;;;;7.72;4.93;;;358.70;1612.80;;;;;;4972615;28;20078;-65
2021/12/24 12:44:08;;;;;;;14.85;5.97;;;358.80;1612.80;;;;;;4972663;28;20515;-65
2021/12/24 12:46:39;;;;;;;11.07;4.75;;;358.70;1612.80;;;;;;4972757;28;20105;-65
2021/12/24 12:49:07;;;;;;;12.68;7.13;;;358.70;1587.20;;;;;;4972203;28;20404;-65
2021/12/24 12:51:55;;;;;;;12.52;7.57;;;358.70;1587.20;;;;;;4972666;28;20034;-65
2021/12/24 12:54:30;;;;;;;11.55;6.57;;;358.70;1587.20;;;;;;4972558;28;20035;-65
2021/12/24 12:57:21;;;;;;;9.57;5.57;;;358.80;1612.80;;;;;;4972747;28;20046;-65
2021/12/24 13:00:07;;;;;;;10.43;5.63;;;358.80;1612.80;;;;;;4976087;28;20481;-64
2021/12/24 13:03:06;;;;;;;9.40;5.97;;;358.70;1612.80;;;;;;4975995;28;20043;-65
2021/12/24 13:05:54;;;;;;;19.13;5.97;;;358.80;1612.80;;;;;;4976083;28;20051;-65
2021/12/24 13:08:29;;;;;;;71.45;8.95;;;358.80;1612.80;;;;;;5011695;28;20044;-65
2021/12/24 13:11:05;;;;;;;14.77;7.05;;;358.80;1612.80;;;;;;5063354;28;20038;-65
2021/12/24 13:13:56;;;;;;;14.43;8.55;;;358.80;1612.80;;;;;;5076524;28;20035;-65
2021/12/24 13:16:35;;;;;;;12.32;6.43;;;358.80;1612.80;;;;;;5076992;28;20111;-65
2021/12/24 13:24:53;;;;;;;10.32;4.90;;;358.80;1612.80;;;;;;5080487;28;20079;-64
2021/12/24 13:27:23;;;;;;;10.00;6.73;;;358.80;1612.80;;;;;;5094803;28;20170;-65
2021/12/24 13:30:02;;;;;;;10.50;5.60;;;358.80;1587.20;;;;;;5094952;28;20072;-65
2021/12/24 13:32:28;;;;;;;8.57;5.32;;;358.80;1612.80;;;;;;5094669;28;20036;-65
2021/12/24 13:34:56;;;;;;;9.95;4.78;;;358.80;1612.80;;;;;;5094659;28;20489;-65
2021/12/24 13:37:29;;;;;;;9.93;5.10;;;358.80;1612.80;;;;;;5094230;28;20024;-65
2021/12/24 13:39:54;;;;;;;7.28;4.25;;;358.80;1612.80;;;;;;5094501;28;20095;-65
2021/12/24 13:42:20;;;;;;;8.60;5.22;;;358.80;1587.20;;;;;;5094394;28;20110;-65
2021/12/24 13:44:48;;;;;;;8.00;5.43;;;358.70;1612.80;;;;;;5094314;28;20066;-65
2021/12/24 13:55:31;;;;;;;11.27;7.03;;;358.60;1612.80;;;;;;5054063;28;20117;-66
2021/12/24 13:58:03;;;;;;;13.50;6.70;;;358.50;1612.80;;;;;;5050132;28;20091;-66
2021/12/24 14:00:33;;;;;;;10.18;7.05;;;358.50;1612.80;;;;;;5033808;28;20040;-66
2021/12/24 14:03:22;;;;;;;13.05;6.80;;;358.40;1612.80;;;;;;5017256;28;20076;-66
2021/12/24 14:05:50;;;;;;;10.10;6.82;;;358.40;1612.80;;;;;;5033500;28;20067;-66
2021/12/24 14:08:21;;;;;;;10.50;7.78;;;358.40;1612.80;;;;;;5033209;28;20025;-66
2021/12/24 14:10:49;;;;;;;11.68;8.07;;;358.40;1638.40;;;;;;5033369;28;20029;-66
2021/12/24 14:13:32;;;;;;;16.73;8.52;;;358.40;1638.40;;;;;;5032914;28;20034;-65
2021/12/24 14:18:55;;;;;;;12.40;8.35;;;333.70;1638.40;;;;;;5033825;28;20033;-65
2021/12/24 14:24:05;;;;;;;17.27;9.93;;;333.60;1638.40;;;;;;5033511;28;20138;-69
2021/12/24 14:26:34;;;;;;;19.45;10.25;;;333.50;1612.80;;;;;;5043370;28;20044;-66
2021/12/24 14:29:05;;;;;;;20.90;11.13;;;333.50;1638.40;;;;;;5075139;28;20077;-67
2021/12/24 14:31:46;;;;;;;25.75;11.73;;;333.50;1638.40;;;;;;5075178;28;20100;-66
2021/12/24 14:34:12;;;;;;;37.88;20.50;;;333.50;1638.40;;;;;;5075523;28;20016;-65